Aberdeen, SD (57401)

7:48 PM CDT on September 02, 2014 (GMT -0500)
Simmons | Change Station
CLOSE
Current Station
Personal Weather Station
Location: Aberdeen, SD
Elevation: 1312 ft
Nearby Weather Stations

Elev 1312 ft 45.45 °N, 98.49 °W | Updated 11 minutes ago

Clear
Clear
75.4 °F
Feels Like 78 °F
N
0.0
Wind Variable Wind from ESE

Today
High -- | Low -- °F
--% Chance of Precip.
Yesterday
High -- | Low -- °F
Precip. -- in
6:56 AM 8:09 PM
First Quarter, 56% visible
Pressure 29.78 in
Visibility 10.0 miles
Clouds Clear
Heat Index 78 °F
Dew Point 62 °F
Humidity 62%
Rainfall 0.00 in
Snow Depth Not available.
UV 1 out of 12
Pollen 9.80 out of 12
Air Quality Not available.
Flu Activity Not available.
METAR KABR 022353Z AUTO 17007KT 10SM CLR 22/14 A2978 RMK AO2 SLP082 T02170139 10267 20217 56014

More Conditions Fewer Conditions

Pressure 29.78 in
Visibility 10.0 miles
Clouds Clear
Heat Index 78 °F
Dew Point 62 °F
Humidity 62%
Rainfall 0.00 in
Snow Depth Not available.
UV 1 out of 12
Pollen 9.80 out of 12
Air Quality Not available.
Flu Activity Not available.
METAR KABR 022353Z AUTO 17007KT 10SM CLR 22/14 A2978 RMK AO2 SLP082 T02170139 10267 20217 56014

More Conditions Fewer Conditions

10-Day Weather Forecast

Almanac

Astronomy

Sep. 02, 2014 Rise Set
Actual Time 6:56 AM CDT 8:09 PM CDT
Civil Twilight 6:26 AM CDT 8:40 PM CDT
Nautical Twilight 5:49 AM CDT 9:16 PM CDT
Astronomical Twilight 5:10 AM CDT 9:55 PM CDT
Moon 3:03 PM CDT (9/2) No Moon Set
Length of Visible Light 14h 13m
Length of Day
13h 13m
Tomorrow will be 3m 5s shorter.
First Quarter, 56% of the Moon is Illuminated
Today
First Quarter
Sep 8
Full
Sep 15
Last Quarter
Sep 24
New
Oct 1
First Quarter

Today's Extremes

State Highs State Lows

Community

WunderPhotos

Upload Photos

1,749,808 photos uploaded!

Nearby

Snow Depth

Station Depth Elevation
Blind Park 0 in 6890 ft

Earthquake Activity

City Distance Mag. Time & Date
No recent earthquake activity has been reported nearby.
Minimum magnitude displayed is 2.5.

Coastal Water Temperatures

Place Temperature
No Stations Reporting

Nearby Weather Stations